• Join FlightAware (Why Join?)
  • Login
  • US Flag 
07:55PM EDT


 

Airport Tracker/Info


-or-


 

Live Flight TrackerFlight Track Log ✈ ELJ112 ✈ 30-Apr-2013 ✈ KSAV - KVNC

Flight Track Log - Related Links

Times and Time Zones

All times are in EDT time to prevent confusion due to time zone crossing. See the ELJ112 flight status page for this flight to view local times or setup timezone preferences in your user account.

Time Position Orientation Groundspeed Altitude Reporting Facility
EDT Latitude Longitude Course Direction KTS MPH feet Rate Location/Type
01:33PM 32.1233 -81.1583 190° South 195 224 1,900  Level Jacksonville Center
01:34PM 32.0644 -81.1300 158° South 262 302 5,000 3,300 Climbing Jacksonville Center
01:35PM 32.0000 -81.1433 190° South 254 292 8,500 3,240 Climbing Jacksonville Center
01:36PM 31.9208 -81.1669 194° South 262 302 11,500 3,000 Climbing Jacksonville Center
01:37PM 31.8461 -81.2000 201° Southwest 279 321 14,600 2,700 Climbing Jacksonville Center
01:38PM 31.6764 -81.2747 190° South  Level FlightAware Approximate
01:38PM 31.7906 -81.2550 220° Southwest 292 336 17,000  Level Jacksonville Center
01:39PM 31.7183 -81.3294 221° Southwest 314 361 19,500 2,400 Climbing Jacksonville Center
01:40PM 31.6483 -81.3989 220° Southwest 330 380 21,900 2,040 Climbing Jacksonville Center
01:41PM 31.5844 -81.4658 222° Southwest 335 386 23,600 1,620 Climbing Jacksonville Center
01:42PM 31.5017 -81.5475 220° Southwest 355 409 25,200 1,200 Climbing Jacksonville Center
01:43PM 31.4314 -81.6217 222° Southwest 374 430 26,000 600 Climbing Jacksonville Center
01:44PM 31.3425 -81.7031 218° Southwest 399 459 26,500 960 Climbing Jacksonville Center
01:45PM 31.2406 -81.7456 200° South 399 459 28,000 1,620 Climbing Jacksonville Center
01:46PM 31.1386 -81.7808 196° South 391 450 29,800 1,680 Climbing Jacksonville Center
01:47PM 31.0386 -81.8136 196° South 386 444 31,400 1,500 Climbing Jacksonville Center
01:48PM 30.9408 -81.8461 196° South 375 432 32,900 1,200 Climbing Jacksonville Center
01:49PM 30.8431 -81.8836 198° South 370 426 33,900 900 Climbing Jacksonville Center
01:50PM 30.7408 -81.9161 195° South 375 432 34,800 840 Climbing Jacksonville Center
01:51PM 30.6347 -81.9533 197° South 380 437 35,600 600 Climbing Jacksonville Center
01:52PM 30.5181 -81.9883 194° South 387 445 36,000 180 Climbing Jacksonville Center
01:53PM 30.4161 -82.0253 197° South 398 458 36,000  Level Jacksonville Center
01:54PM 30.3139 -82.0600 196° South 398 458 36,000  Level Jacksonville Center
01:55PM 30.2078 -82.0944 196° South 393 452 36,000  Level Jacksonville Center
01:56PM 30.1014 -82.1339 198° South 398 458 36,000 -300 Level Jacksonville Center
01:57PM 29.9931 -82.1731 197° South 398 458 35,400 -540 Descending Jacksonville Center
01:58PM 29.8889 -82.2075 196° South 398 458 35,000 -240 Descending Jacksonville Center
01:59PM 29.7847 -82.2272 189° South 392 451 35,000 -600 Level Jacksonville Center
02:00PM 29.6739 -82.2136 174° South 392 451 33,900 -2,280 Descending Jacksonville Center
02:01PM 29.5589 -82.2050 176° South 400 460 30,500 -3,600 Descending Jacksonville Center
02:02PM 29.4442 -82.1939 175° South 412 474 26,700 -3,600 Descending Jacksonville Center
02:03PM 29.3314 -82.1803 174° South 417 480 23,400 -2,700 Descending Jacksonville Center
02:04PM 29.2247 -82.1717 176° South 407 468 21,300 -1,200 Descending Jacksonville Center
02:05PM 29.1183 -82.1628 176° South 394 453 21,000 -840 Descending Jacksonville Center
02:06PM 29.0117 -82.1517 175° South 389 448 19,700 -1,500 Descending Jacksonville Center
02:07PM 28.9200 -82.1431 175° South 383 441 18,000 -1,800 Descending Jacksonville Center
02:08PM 28.8197 -82.1319 174° South 378 435 16,200 -1,680 Descending Jacksonville Center
02:10PM 28.6000 -82.1000 173° South 340 391 12,700 -1,320 Descending Tampa TRACON
02:11PM 28.5000 -82.1000 180° South 327 376 12,000 -420 Descending Tampa TRACON
02:12PM 28.4167 -82.1000 180° South 318 366 11,900 -60 Descending Tampa TRACON
02:13PM 28.3333 -82.1167 190° South 326 375 11,900  Level Tampa TRACON
02:14PM 28.2333 -82.1333 188° South 318 366 11,900  Level Tampa TRACON
02:15PM 28.1500 -82.1500 190° South 319 367 12,000  Climbing Tampa TRACON
02:16PM 28.0667 -82.1667 190° South 318 366 12,000 -480 Level Tampa TRACON
02:17PM 27.9833 -82.1833 190° South 312 359 11,100 -1,020 Descending Tampa TRACON
02:18PM 27.9000 -82.2167 199° South 303 349 10,000 -600 Descending Tampa TRACON
02:19PM 27.8167 -82.2333 190° South 283 326 10,000  Level Tampa TRACON
02:20PM 27.7667 -82.3000 230° Southwest 287 330 10,000  Level Tampa TRACON
02:21PM 27.7000 -82.3500 214° Southwest 291 335 10,000 -900 Level Tampa TRACON
02:22PM 27.6333 -82.4000 214° Southwest 278 320 8,300 -1,020 Descending Tampa TRACON
02:23PM 27.5667 -82.4333 204° Southwest 253 291 8,000 -180 Descending Tampa TRACON
02:24PM 27.5000 -82.4500 193° South 267 307 8,000  Level Tampa TRACON
02:25PM 27.4333 -82.5000 214° Southwest 260 299 8,000 -180 Level Tampa TRACON
02:26PM 27.3667 -82.5333 204° Southwest 285 328 7,700 -1,200 Descending Tampa TRACON
02:27PM 27.2833 -82.5167 170° South 262 302 5,600 -2,280 Descending Tampa TRACON
02:28PM 27.2167 -82.5000 167° South 261 300 3,200 -2,040 Descending Tampa TRACON
02:29PM 27.1667 -82.4667 149° Southeast 217 250 1,600 -1,620 Descending Tampa TRACON